Time;durP1;ratioP1;P1;durP2;ratioP2;P2;SDS_P1;SDS_P2;PMS_P1;PMS_P2;Temp;Humidity;BMP_temperature;BMP_pressure;BME280_temperature;BME280_humidity;BME280_pressure;Samples;Min_cycle;Max_cycle;Signal;HPM_P1;HPM_P2
2022/12/05 00:01:28;;;;;;;12.98;7.03;;;2.10;99.90;;;;;;5127056;27;20027;-74
2022/12/05 00:03:58;;;;;;;12.57;7.32;;;2.10;99.90;;;;;;5128368;27;20027;-74
2022/12/05 00:06:25;;;;;;;12.68;6.35;;;2.10;99.90;;;;;;5126799;27;20058;-75
2022/12/05 00:08:51;;;;;;;12.88;5.18;;;2.10;99.90;;;;;;5127108;27;20117;-76
2022/12/05 00:11:23;;;;;;;17.52;7.75;;;3.40;99.90;;;;;;5126842;27;20039;-77
2022/12/05 00:13:50;;;;;;;13.68;7.22;;;2.10;99.90;;;;;;5128339;27;20027;-77
2022/12/05 00:16:18;;;;;;;16.30;6.97;;;2.30;99.90;;;;;;5128866;27;20027;-76
2022/12/05 00:18:44;;;;;;;14.27;7.68;;;2.20;99.90;;;;;;5128731;27;20037;-75
2022/12/05 00:21:32;;;;;;;10.98;6.57;;;2.30;99.90;;;;;;5136208;27;20047;-75
2022/12/05 00:23:59;;;;;;;12.98;7.40;;;2.30;99.90;;;;;;5131139;27;20083;-75
2022/12/05 00:26:26;;;;;;;13.07;6.40;;;2.30;99.90;;;;;;5148920;27;20090;-76
2022/12/05 00:28:52;;;;;;;16.77;8.55;;;3.30;99.90;;;;;;5130614;27;20124;-74
2022/12/05 00:31:23;;;;;;;18.33;8.45;;;2.30;99.90;;;;;;5148977;27;20075;-76
2022/12/05 00:33:50;;;;;;;13.82;8.60;;;2.40;99.90;;;;;;5149223;27;20027;-74
2022/12/05 00:36:24;;;;;;;11.32;5.38;;;3.60;99.90;;;;;;5131271;27;20389;-76
2022/12/05 00:38:51;;;;;;;15.18;5.78;;;2.30;99.90;;;;;;5131157;27;20466;-77
2022/12/05 00:41:19;;;;;;;18.17;6.93;;;2.70;99.90;;;;;;5149479;27;20029;-82
2022/12/05 00:43:45;;;;;;;16.08;7.07;;;2.30;99.90;;;;;;5148550;27;20502;-76
2022/12/05 00:46:14;;;;;;;11.38;5.97;;;2.40;99.90;;;;;;5149149;27;20023;-75
2022/12/05 00:48:40;;;;;;;12.95;7.38;;;2.20;99.90;;;;;;5130333;27;20027;-76
2022/12/05 00:51:07;;;;;;;13.10;6.18;;;3.50;99.90;;;;;;5149739;27;20121;-75
2022/12/05 00:53:34;;;;;;;16.55;7.50;;;2.30;99.90;;;;;;5133410;27;20570;-76
2022/12/05 00:56:09;;;;;;;11.02;6.78;;;2.50;99.90;;;;;;5149719;27;20030;-74
2022/12/05 00:58:36;;;;;;;15.13;6.00;;;2.20;99.90;;;;;;5131362;27;20097;-75
2022/12/05 01:01:31;;;;;;;16.58;8.15;;;2.70;99.90;;;;;;5130951;27;20030;-75
2022/12/05 01:03:58;;;;;;;11.30;6.25;;;2.20;99.90;;;;;;5149860;27;20019;-75
2022/12/05 01:06:25;;;;;;;11.63;6.55;;;4.70;99.90;;;;;;5131433;27;20023;-74
2022/12/05 01:08:53;;;;;;;12.38;6.05;;;2.30;99.90;;;;;;5149739;27;20056;-75
2022/12/05 01:11:19;;;;;;;15.00;5.88;;;2.20;99.90;;;;;;5150354;27;20027;-75
2022/12/05 01:13:45;;;;;;;12.43;5.63;;;2.20;99.90;;;;;;5151344;27;20022;-74
2022/12/05 01:16:36;;;;;;;11.73;6.57;;;2.30;99.90;;;;;;5133099;27;20477;-75
2022/12/05 01:19:05;;;;;;;14.27;6.30;;;2.30;99.90;;;;;;5134379;27;20038;-75
2022/12/05 01:21:31;;;;;;;14.23;6.90;;;2.30;99.90;;;;;;5136591;27;20394;-75
2022/12/05 01:23:57;;;;;;;15.77;7.22;;;2.30;99.90;;;;;;5155105;27;20071;-75
2022/12/05 01:26:23;;;;;;;13.82;7.32;;;2.20;99.90;;;;;;5136740;27;20018;-74
2022/12/05 01:28:50;;;;;;;9.90;5.50;;;2.40;99.90;;;;;;5136419;27;20027;-74
2022/12/05 01:31:23;;;;;;;11.65;6.35;;;2.30;99.90;;;;;;5136286;27;20406;-75
2022/12/05 01:33:49;;;;;;;19.58;6.97;;;3.80;99.90;;;;;;5155167;27;20470;-75
2022/12/05 01:36:16;;;;;;;16.27;7.53;;;2.20;99.90;;;;;;5136263;27;20049;-75
2022/12/05 01:38:42;;;;;;;12.52;5.78;;;3.00;99.90;;;;;;5154530;27;20029;-75
2022/12/05 01:41:13;;;;;;;12.00;5.68;;;2.20;99.90;;;;;;5154782;27;20015;-75
2022/12/05 01:43:58;;;;;;;11.90;6.15;;;2.30;99.90;;;;;;5154673;27;20130;-75
2022/12/05 01:46:25;;;;;;;15.88;7.38;;;2.30;99.90;;;;;;5136300;27;20163;-74
2022/12/05 01:48:54;;;;;;;12.25;6.38;;;2.40;99.90;;;;;;5154986;27;20029;-75
2022/12/05 01:51:21;;;;;;;;;;;2.50;99.90;;;;;;5155105;27;20030;-76
2022/12/05 01:53:47;;;;;;;9.93;5.30;;;2.70;99.90;;;;;;5154884;27;19907;-75
2022/12/05 01:56:13;;;;;;;12.60;6.18;;;2.80;99.90;;;;;;5154614;27;20027;-75
2022/12/05 01:58:41;;;;;;;9.02;5.55;;;2.60;99.90;;;;;;5154501;27;20019;-75
2022/12/05 02:01:07;;;;;;;13.38;6.75;;;2.30;99.90;;;;;;5135780;27;20034;-75
2022/12/05 02:03:36;;;;;;;11.95;6.60;;;3.00;99.90;;;;;;5154629;27;20022;-75
2022/12/05 02:06:02;;;;;;;11.52;6.18;;;2.30;99.90;;;;;;5154908;27;20531;-75
2022/12/05 02:08:28;;;;;;;12.57;5.85;;;2.20;99.90;;;;;;5154721;27;20053;-75
2022/12/05 02:10:56;;;;;;;9.30;5.28;;;2.70;99.90;;;;;;5154393;27;20490;-74
2022/12/05 02:13:50;;;;;;;11.30;5.22;;;2.30;99.90;;;;;;5153734;27;20027;-75
2022/12/05 02:16:33;;;;;;;10.80;6.38;;;2.20;99.90;;;;;;5135314;27;20113;-75
2022/12/05 02:18:59;;;;;;;16.20;7.57;;;2.20;99.90;;;;;;5134945;27;20072;-75
2022/12/05 02:22:13;;;;;;;8.85;5.57;;;2.20;99.90;;;;;;5152309;27;20050;-76
2022/12/05 02:25:12;;;;;;;12.52;5.65;;;2.10;99.90;;;;;;5094697;27;20031;-75
2022/12/05 02:28:01;;;;;;;15.65;6.45;;;2.10;99.90;;;;;;5152312;27;20026;-74
2022/12/05 02:30:44;;;;;;;13.90;6.85;;;2.10;99.90;;;;;;5152208;27;20025;-75
2022/12/05 02:33:13;;;;;;;11.02;6.32;;;2.30;99.90;;;;;;5152384;27;20038;-75
2022/12/05 02:36:03;;;;;;;11.02;4.72;;;3.50;99.90;;;;;;5153265;27;20067;-75
2022/12/05 02:38:53;;;;;;;13.00;5.22;;;2.10;99.90;;;;;;5152917;27;20523;-75
2022/12/05 02:41:30;;;;;;;10.98;5.72;;;2.00;99.90;;;;;;5134314;27;20576;-75
2022/12/05 02:44:01;;;;;;;9.60;5.68;;;2.00;99.90;;;;;;5152817;27;20076;-75
2022/12/05 02:46:30;;;;;;;9.55;5.97;;;2.20;99.90;;;;;;5153520;27;20513;-75
2022/12/05 02:49:00;;;;;;;11.77;5.20;;;2.40;99.90;;;;;;5134774;27;20045;-75
2022/12/05 02:51:30;;;;;;;8.80;5.43;;;2.10;99.90;;;;;;5153279;27;20132;-76
2022/12/05 02:54:01;;;;;;;10.13;6.50;;;2.20;99.90;;;;;;5152199;27;20403;-74
2022/12/05 02:56:28;;;;;;;13.60;7.88;;;2.10;99.90;;;;;;5153293;27;20025;-75
2022/12/05 02:58:55;;;;;;;12.23;6.72;;;3.30;99.90;;;;;;5134610;27;20382;-75
2022/12/05 03:01:27;;;;;;;10.82;6.22;;;3.40;99.90;;;;;;5153194;27;20541;-75
2022/12/05 03:03:55;;;;;;;10.82;6.13;;;2.10;99.90;;;;;;5134587;27;20394;-75
2022/12/05 03:06:22;;;;;;;13.93;6.68;;;2.10;99.90;;;;;;5134860;27;20114;-74
2022/12/05 03:08:56;;;;;;;11.43;5.97;;;2.50;99.90;;;;;;5153221;27;20033;-75
2022/12/05 03:11:22;;;;;;;13.10;5.97;;;2.10;99.90;;;;;;5152629;27;20134;-74
2022/12/05 03:13:51;;;;;;;13.45;6.38;;;3.10;99.90;;;;;;5152901;27;20046;-75
2022/12/05 03:16:23;;;;;;;16.00;6.43;;;3.60;99.90;;;;;;5152962;27;20022;-75
2022/12/05 03:18:57;;;;;;;9.82;6.57;;;2.50;99.90;;;;;;5152915;27;20019;-75
2022/12/05 03:21:30;;;;;;;13.25;6.20;;;2.20;99.90;;;;;;5152953;27;20126;-75
2022/12/05 03:24:01;;;;;;;13.25;5.68;;;2.10;99.90;;;;;;5152940;27;20019;-75
2022/12/05 03:26:49;;;;;;;9.95;5.47;;;2.30;99.90;;;;;;5152382;27;20022;-75
2022/12/05 03:29:34;;;;;;;12.57;6.63;;;2.60;99.90;;;;;;5152728;27;20486;-75
2022/12/05 03:32:08;;;;;;;12.77;5.90;;;2.00;99.90;;;;;;5152604;27;20038;-76
2022/12/05 03:34:57;;;;;;;12.45;5.47;;;2.10;99.90;;;;;;5152742;27;20030;-75
2022/12/05 03:37:40;;;;;;;9.87;5.37;;;1.90;99.90;;;;;;5133885;27;20027;-75
2022/12/05 03:40:30;;;;;;;9.90;6.22;;;1.90;99.90;;;;;;5152605;27;20795;-76
2022/12/05 03:43:34;;;;;;;11.13;6.32;;;1.90;99.90;;;;;;5134032;27;20064;-75
2022/12/05 03:46:21;;;;;;;12.02;6.25;;;1.90;99.90;;;;;;5147067;27;20027;-75
2022/12/05 03:48:55;;;;;;;12.90;5.13;;;2.70;99.90;;;;;;5133911;27;20048;-75
2022/12/05 03:51:27;;;;;;;15.43;4.90;;;1.80;99.90;;;;;;5133712;27;20062;-75
2022/12/05 03:54:01;;;;;;;13.85;6.63;;;1.90;99.90;;;;;;5152174;27;20030;-74
2022/12/05 03:56:33;;;;;;;9.85;5.32;;;1.90;99.90;;;;;;5151771;27;20019;-75
2022/12/05 03:59:19;;;;;;;11.07;5.53;;;2.00;99.90;;;;;;5152071;27;20075;-75
2022/12/05 04:01:47;;;;;;;14.45;6.97;;;1.90;99.90;;;;;;5152252;27;20014;-74
2022/12/05 04:04:25;;;;;;;9.82;4.97;;;2.20;99.90;;;;;;5151981;27;20113;-75
2022/12/05 04:06:54;;;;;;;10.77;4.95;;;2.00;99.90;;;;;;5152066;27;20019;-75
2022/12/05 04:09:25;;;;;;;12.35;7.38;;;2.20;99.90;;;;;;5152304;27;20030;-75
2022/12/05 04:11:57;;;;;;;9.43;4.75;;;4.50;99.90;;;;;;5133408;27;20038;-75
2022/12/05 04:14:36;;;;;;;8.38;4.63;;;2.00;99.90;;;;;;5151721;27;20022;-75
2022/12/05 04:17:41;;;;;;;14.90;6.90;;;2.70;99.90;;;;;;5152217;27;20023;-75
2022/12/05 04:23:20;;;;;;;10.27;4.57;;;1.90;99.90;;;;;;5111157;28;20041;-74
2022/12/05 04:26:10;;;;;;;9.50;5.18;;;1.90;99.90;;;;;;5109306;28;20028;-76
2022/12/05 04:28:43;;;;;;;12.05;6.40;;;1.90;99.90;;;;;;5110731;28;20024;-75
2022/12/05 04:31:18;;;;;;;13.45;6.10;;;1.90;99.90;;;;;;5110777;28;20038;-75
2022/12/05 04:33:58;;;;;;;11.95;5.47;;;1.90;99.90;;;;;;5110958;28;20483;-74
2022/12/05 04:36:35;;;;;;;9.93;5.93;;;1.90;99.90;;;;;;5108998;28;20393;-74
2022/12/05 04:39:08;;;;;;;9.52;6.50;;;2.00;99.90;;;;;;5110736;28;20023;-75
2022/12/05 04:41:38;;;;;;;8.77;5.60;;;3.50;99.90;;;;;;5110221;28;20023;-75
2022/12/05 04:44:07;;;;;;;10.80;6.65;;;2.40;99.90;;;;;;5110600;28;20596;-75
2022/12/05 04:46:35;;;;;;;9.40;6.00;;;1.90;99.90;;;;;;5109460;28;20039;-75
2022/12/05 04:49:04;;;;;;;14.10;7.10;;;2.40;99.90;;;;;;5110411;28;20484;-76
2022/12/05 04:51:33;;;;;;;10.68;6.97;;;3.10;99.90;;;;;;5110277;28;20106;-76
2022/12/05 04:54:08;;;;;;;11.90;5.80;;;2.20;99.90;;;;;;5112601;28;20028;-75
2022/12/05 04:56:36;;;;;;;9.77;6.10;;;2.00;99.90;;;;;;5112415;28;20375;-75
2022/12/05 04:59:02;;;;;;;10.90;5.72;;;2.50;99.90;;;;;;5114176;28;20027;-75
2022/12/05 05:01:40;;;;;;;9.27;5.88;;;2.00;99.90;;;;;;5113111;28;20023;-75
2022/12/05 05:04:24;;;;;;;14.83;7.70;;;2.00;99.90;;;;;;5114658;28;20540;-75
2022/12/05 05:06:50;;;;;;;12.38;6.15;;;2.00;99.90;;;;;;5112814;28;20015;-75
2022/12/05 05:09:16;;;;;;;7.22;5.03;;;2.30;99.90;;;;;;5114307;28;20026;-75
2022/12/05 05:11:41;;;;;;;13.23;7.32;;;2.20;99.90;;;;;;5113903;28;20028;-75
2022/12/05 05:14:07;;;;;;;9.18;5.88;;;2.20;99.90;;;;;;5114291;28;20045;-75
2022/12/05 05:16:35;;;;;;;13.45;5.68;;;2.80;99.90;;;;;;5114393;28;20036;-74
2022/12/05 05:19:01;;;;;;;13.63;5.63;;;2.20;99.90;;;;;;5114001;28;20161;-76
2022/12/05 05:21:31;;;;;;;10.23;6.30;;;2.60;99.90;;;;;;5134251;27;20491;-75
2022/12/05 05:23:57;;;;;;;14.45;7.70;;;2.40;99.90;;;;;;5155411;27;20022;-75
2022/12/05 05:26:25;;;;;;;10.82;6.22;;;3.50;99.90;;;;;;5155081;27;20023;-74
2022/12/05 05:28:51;;;;;;;10.82;6.03;;;2.70;99.90;;;;;;5155098;27;20022;-75
2022/12/05 05:31:18;;;;;;;8.40;5.78;;;2.50;99.90;;;;;;5154996;27;20397;-75
2022/12/05 05:33:48;;;;;;;9.80;4.95;;;3.30;99.90;;;;;;5136326;27;20134;-75
2022/12/05 05:36:14;;;;;;;8.50;5.70;;;2.60;99.90;;;;;;5154704;27;20019;-75
2022/12/05 05:38:45;;;;;;;9.02;4.68;;;2.60;99.90;;;;;;5135840;27;20027;-75
2022/12/05 05:41:20;;;;;;;14.88;8.88;;;2.50;99.90;;;;;;5136001;27;20030;-75
2022/12/05 05:43:47;;;;;;;14.93;6.97;;;2.40;99.90;;;;;;5154928;27;20103;-75
2022/12/05 05:46:14;;;;;;;9.02;6.60;;;2.90;99.90;;;;;;5154954;27;20015;-74
2022/12/05 05:48:40;;;;;;;13.00;6.32;;;2.60;99.90;;;;;;5136411;27;20026;-75
2022/12/05 05:51:07;;;;;;;11.98;6.88;;;2.90;99.90;;;;;;5154510;27;20087;-75
2022/12/05 05:53:33;;;;;;;15.05;8.73;;;3.30;99.90;;;;;;5154900;27;20022;-75
2022/12/05 05:56:07;;;;;;;14.63;7.30;;;2.80;99.90;;;;;;5154528;27;20022;-75
2022/12/05 05:58:34;;;;;;;15.68;7.15;;;2.30;99.90;;;;;;5154083;27;20094;-75
2022/12/05 06:01:07;;;;;;;12.35;7.95;;;2.40;99.90;;;;;;5154442;27;20030;-76
2022/12/05 06:03:33;;;;;;;13.27;7.50;;;2.30;99.90;;;;;;5135988;27;20027;-75
2022/12/05 06:06:02;;;;;;;10.82;5.80;;;2.40;99.90;;;;;;5135819;27;20022;-75
2022/12/05 06:08:32;;;;;;;12.43;7.00;;;2.30;99.90;;;;;;5135933;27;20023;-75
2022/12/05 06:10:58;;;;;;;14.48;8.35;;;2.30;99.90;;;;;;5133179;27;20041;-75
2022/12/05 06:13:24;;;;;;;12.40;6.88;;;2.30;99.90;;;;;;5132939;27;20098;-74
2022/12/05 06:15:51;;;;;;;14.57;5.78;;;2.20;99.90;;;;;;5133148;27;20015;-75
2022/12/05 06:18:17;;;;;;;12.40;6.93;;;2.80;99.90;;;;;;5114277;27;20038;-75
2022/12/05 06:20:54;;;;;;;11.73;7.68;;;3.20;99.90;;;;;;5114490;27;20167;-75
2022/12/05 06:23:20;;;;;;;12.60;8.05;;;2.10;99.90;;;;;;5133108;27;20098;-75
2022/12/05 06:25:51;;;;;;;13.52;7.03;;;2.10;99.90;;;;;;5133198;27;20102;-75
2022/12/05 06:28:17;;;;;;;14.02;8.85;;;2.10;99.90;;;;;;5114654;27;20114;-75
2022/12/05 06:30:43;;;;;;;13.80;8.75;;;4.20;99.90;;;;;;5114558;27;20391;-75
2022/12/05 06:33:09;;;;;;;18.52;8.95;;;2.40;99.90;;;;;;5133020;27;20030;-75
2022/12/05 06:35:34;;;;;;;16.75;7.22;;;2.20;99.90;;;;;;5114328;27;20459;-74
2022/12/05 06:38:00;;;;;;;23.48;7.82;;;2.90;99.90;;;;;;5134417;27;20114;-75
2022/12/05 06:40:26;;;;;;;19.63;8.30;;;2.40;99.90;;;;;;5134219;27;20046;-74
2022/12/05 06:42:51;;;;;;;18.30;8.57;;;3.30;99.90;;;;;;5112342;27;20035;-75
2022/12/05 06:45:17;;;;;;;20.50;8.95;;;2.90;99.90;;;;;;5131105;27;20019;-74
2022/12/05 06:47:43;;;;;;;15.30;8.05;;;2.50;99.90;;;;;;5136386;27;20015;-76
2022/12/05 06:50:09;;;;;;;20.30;9.13;;;2.50;99.90;;;;;;5147122;27;20210;-76
2022/12/05 06:52:34;;;;;;;19.85;7.47;;;2.60;99.90;;;;;;5126441;27;20042;-76
2022/12/05 06:55:00;;;;;;;17.23;8.15;;;2.20;99.90;;;;;;5132265;27;20101;-76
2022/12/05 06:57:28;;;;;;;15.07;7.95;;;2.10;99.90;;;;;;5113919;27;20034;-75
2022/12/05 07:01:37;;;;;;;12.32;7.07;;;2.10;99.90;;;;;;5114354;27;20475;-75
2022/12/05 07:02:40;;;;;;;18.00;6.82;;;2.00;99.90;;;;;;5145033;27;20037;-75
2022/12/05 07:05:07;;;;;;;12.35;7.50;;;1.90;99.90;;;;;;5134378;27;20736;-76
2022/12/05 07:07:32;;;;;;;11.30;7.47;;;1.90;99.90;;;;;;5152412;27;20014;-76
2022/12/05 07:09:58;;;;;;;15.35;9.07;;;1.90;99.90;;;;;;5133704;27;20044;-75
2022/12/05 07:12:24;;;;;;;16.00;8.60;;;1.80;99.90;;;;;;5133525;27;20031;-75
2022/12/05 07:14:50;;;;;;;19.92;10.48;;;2.40;99.90;;;;;;5152337;27;20099;-75
2022/12/05 07:17:17;;;;;;;17.20;6.43;;;2.70;99.90;;;;;;5151532;27;20105;-75
2022/12/05 07:19:43;;;;;;;13.93;7.32;;;2.60;99.90;;;;;;5133382;27;20095;-76
2022/12/05 07:22:08;;;;;;;20.70;10.30;;;1.60;99.90;;;;;;5132865;27;20137;-76
2022/12/05 07:24:34;;;;;;;13.30;7.40;;;2.60;99.90;;;;;;5151704;27;20080;-77
2022/12/05 07:27:00;;;;;;;20.48;9.43;;;1.90;99.90;;;;;;5132678;27;20023;-75
2022/12/05 07:29:25;;;;;;;16.80;9.55;;;2.00;99.90;;;;;;5132185;27;20025;-77
2022/12/05 07:31:52;;;;;;;19.40;9.80;;;1.90;99.90;;;;;;5132406;27;20494;-75
2022/12/05 07:34:18;;;;;;;19.95;9.90;;;2.60;99.90;;;;;;5129430;27;20071;-75
2022/12/05 07:36:43;;;;;;;15.77;8.95;;;2.30;99.90;;;;;;5140292;27;20093;-76
2022/12/05 07:39:09;;;;;;;19.65;9.13;;;3.00;99.90;;;;;;5132344;27;20023;-76
2022/12/05 07:41:35;;;;;;;17.95;9.68;;;2.00;99.90;;;;;;5150398;27;20038;-76
2022/12/05 07:44:00;;;;;;;18.52;9.68;;;1.70;99.90;;;;;;5131884;27;20030;-76
2022/12/05 07:46:27;;;;;;;21.77;11.32;;;3.30;99.90;;;;;;5150805;27;20022;-76
2022/12/05 07:48:54;;;;;;;18.15;10.20;;;1.80;99.90;;;;;;5131132;27;20038;-75
2022/12/05 07:51:20;;;;;;;19.30;9.93;;;2.60;99.90;;;;;;5149812;27;20035;-76
2022/12/05 07:53:46;;;;;;;12.65;7.22;;;1.70;99.90;;;;;;5149892;27;20098;-75
2022/12/05 07:56:15;;;;;;;9.85;6.05;;;2.20;99.90;;;;;;5130858;27;20075;-76
2022/12/05 07:58:43;;;;;;;14.02;7.13;;;2.80;99.90;;;;;;5149752;27;20029;-76
2022/12/05 08:01:14;;;;;;;16.50;8.25;;;1.90;99.90;;;;;;5141341;27;20095;-77
2022/12/05 08:03:41;;;;;;;16.08;9.27;;;2.50;99.90;;;;;;5147298;27;20038;-77
2022/12/05 08:06:09;;;;;;;19.73;10.77;;;3.20;99.90;;;;;;5129433;27;20026;-76
2022/12/05 08:08:36;;;;;;;15.75;8.98;;;3.40;99.90;;;;;;5118315;27;20461;-75
2022/12/05 08:11:04;;;;;;;18.25;9.75;;;3.00;99.90;;;;;;5129972;27;20031;-76
2022/12/05 08:13:30;;;;;;;18.67;9.60;;;3.00;99.90;;;;;;5130810;27;20026;-76
2022/12/05 08:16:04;;;;;;;15.18;7.53;;;3.20;99.90;;;;;;5150556;27;20023;-76
2022/12/05 08:18:30;;;;;;;15.25;9.43;;;2.70;99.90;;;;;;5130842;27;20022;-77
2022/12/05 08:21:04;;;;;;;15.45;8.90;;;3.10;99.90;;;;;;5127794;28;20047;-76
2022/12/05 08:23:31;;;;;;;14.10;9.13;;;2.90;99.90;;;;;;5128751;27;20015;-77
2022/12/05 08:26:08;;;;;;;13.27;7.32;;;3.70;99.90;;;;;;5129423;27;20031;-76
2022/12/05 08:28:34;;;;;;;16.08;8.60;;;3.30;99.90;;;;;;5130866;27;20125;-76
2022/12/05 08:31:05;;;;;;;16.08;9.25;;;3.60;99.90;;;;;;5129923;27;20118;-77
2022/12/05 08:33:31;;;;;;;17.65;7.28;;;3.40;99.90;;;;;;5129883;27;20121;-75
2022/12/05 08:35:58;;;;;;;16.08;8.32;;;3.50;99.90;;;;;;5131186;27;20098;-76
2022/12/05 08:38:24;;;;;;;12.52;7.50;;;3.50;99.90;;;;;;5131601;27;20027;-76
2022/12/05 08:40:49;;;;;;;11.38;8.30;;;3.50;99.90;;;;;;5129521;27;20108;-76
2022/12/05 08:43:15;;;;;;;14.63;7.63;;;3.70;99.90;;;;;;5131058;27;20079;-75
2022/12/05 08:45:47;;;;;;;10.02;5.53;;;3.50;99.90;;;;;;5131632;27;20492;-77
2022/12/05 08:48:13;;;;;;;13.88;6.93;;;4.50;99.90;;;;;;5130667;27;20077;-77
2022/12/05 08:50:38;;;;;;;12.93;6.65;;;4.00;99.90;;;;;;5130565;27;20463;-78
2022/12/05 08:53:04;;;;;;;15.23;6.75;;;3.70;99.90;;;;;;5132669;27;20045;-77
2022/12/05 08:55:32;;;;;;;11.15;5.20;;;3.90;99.90;;;;;;5133376;27;20020;-78
2022/12/05 08:57:58;;;;;;;11.52;7.10;;;3.80;99.90;;;;;;5132494;27;20067;-77
2022/12/05 09:00:23;;;;;;;20.15;7.72;;;3.90;99.90;;;;;;5132206;27;20019;-76
2022/12/05 09:02:50;;;;;;;14.90;5.97;;;3.80;99.90;;;;;;5130553;27;20054;-76
2022/12/05 09:05:16;;;;;;;18.60;8.25;;;4.20;99.90;;;;;;5131316;27;20030;-76
2022/12/05 09:07:42;;;;;;;14.73;7.45;;;5.00;99.90;;;;;;5131533;27;20026;-77
2022/12/05 09:10:11;;;;;;;15.90;7.97;;;4.30;99.90;;;;;;5131962;27;20619;-76
2022/12/05 09:12:37;;;;;;;8.63;5.78;;;4.20;99.90;;;;;;5130824;27;20510;-77
2022/12/05 09:15:05;;;;;;;12.02;6.25;;;4.40;99.90;;;;;;5131216;27;20828;-76
2022/12/05 09:17:31;;;;;;;17.77;7.53;;;4.40;99.90;;;;;;5129427;27;20031;-76
2022/12/05 09:19:56;;;;;;;14.77;8.25;;;4.40;99.90;;;;;;5129305;27;20091;-76
2022/12/05 09:22:22;;;;;;;9.65;5.63;;;4.30;99.90;;;;;;5148375;27;20081;-79
2022/12/05 09:24:48;;;;;;;13.80;6.60;;;4.30;99.90;;;;;;5134022;27;20517;-78
2022/12/05 09:27:14;;;;;;;11.48;6.22;;;5.30;99.90;;;;;;5135370;27;20030;-77
2022/12/05 09:29:39;;;;;;;11.88;6.55;;;4.40;99.90;;;;;;5134045;27;20026;-77
2022/12/05 09:32:05;;;;;;;10.68;5.03;;;5.70;99.90;;;;;;5151997;27;20058;-80
2022/12/05 09:34:31;;;;;;;11.32;6.72;;;4.90;99.90;;;;;;5133696;27;20019;-82
2022/12/05 09:36:57;;;;;;;29.55;10.55;;;4.90;99.90;;;;;;5152611;27;20160;-77
2022/12/05 09:39:23;;;;;;;18.67;7.63;;;5.10;99.90;;;;;;5133009;27;20038;-82
2022/12/05 09:42:11;;;;;;;23.85;12.52;;;5.00;99.90;;;;;;5133356;27;20061;-77
2022/12/05 09:44:56;;;;;;;24.60;13.15;;;4.90;99.90;;;;;;5152622;27;20015;-76
2022/12/05 09:47:25;;;;;;;17.00;8.75;;;4.80;99.90;;;;;;5151250;27;20046;-77
2022/12/05 09:50:14;;;;;;;15.35;7.45;;;4.60;99.90;;;;;;5152813;27;20031;-77
2022/12/05 09:52:57;;;;;;;13.15;7.88;;;4.70;99.90;;;;;;5150551;27;20046;-78
2022/12/05 09:55:23;;;;;;;19.23;8.23;;;4.70;99.90;;;;;;5133361;27;20390;-75
2022/12/05 09:57:57;;;;;;;27.40;8.50;;;4.60;99.90;;;;;;5150741;27;20151;-76
2022/12/05 10:00:25;;;;;;;15.10;7.47;;;4.70;99.90;;;;;;5132790;27;20114;-76
2022/12/05 10:03:01;;;;;;;19.95;8.82;;;4.80;99.90;;;;;;5151505;27;20030;-77
2022/12/05 10:05:45;;;;;;;23.38;9.68;;;4.90;99.90;;;;;;5150830;27;20014;-76
2022/12/05 10:08:39;;;;;;;20.17;7.90;;;4.90;99.90;;;;;;5151407;27;20379;-76
2022/12/05 10:11:34;;;;;;;15.02;7.47;;;5.10;99.90;;;;;;5150586;27;20031;-75
2022/12/05 10:14:22;;;;;;;15.45;9.55;;;5.00;99.90;;;;;;5087761;27;20056;-77
2022/12/05 10:16:53;;;;;;;20.52;9.07;;;5.00;99.90;;;;;;5130941;27;20030;-75
2022/12/05 10:19:34;;;;;;;15.23;7.38;;;4.90;99.90;;;;;;5117068;27;20054;-76
2022/12/05 10:22:28;;;;;;;18.88;8.10;;;4.80;99.90;;;;;;5112221;27;20100;-77
2022/12/05 10:24:59;;;;;;;16.73;8.25;;;4.70;99.90;;;;;;5112140;27;20114;-77
2022/12/05 10:27:37;;;;;;;18.25;9.60;;;4.80;99.90;;;;;;5130247;27;20023;-76
2022/12/05 10:30:16;;;;;;;16.38;9.50;;;5.30;99.90;;;;;;5128648;27;20031;-76
2022/12/05 10:32:54;;;;;;;13.43;6.97;;;4.90;99.90;;;;;;5111147;27;20035;-75
2022/12/05 10:35:24;;;;;;;19.42;6.82;;;4.90;99.90;;;;;;5131007;27;20030;-80
2022/12/05 10:37:53;;;;;;;14.75;7.28;;;5.00;99.90;;;;;;5130551;27;20038;-77
2022/12/05 10:40:19;;;;;;;17.33;10.00;;;5.00;99.90;;;;;;5130016;27;20026;-75
2022/12/05 10:42:47;;;;;;;14.95;7.72;;;5.00;99.90;;;;;;5129406;27;20565;-76
2022/12/05 10:45:17;;;;;;;16.95;7.95;;;5.20;99.90;;;;;;5109900;27;20034;-76
2022/12/05 10:47:42;;;;;;;12.10;8.07;;;5.00;99.90;;;;;;5118507;27;20042;-76
2022/12/05 10:50:27;;;;;;;13.60;7.68;;;4.90;99.90;;;;;;5131401;27;20038;-77
2022/12/05 10:52:55;;;;;;;18.58;8.80;;;6.80;99.90;;;;;;5149739;27;20091;-76
2022/12/05 10:55:38;;;;;;;16.02;7.57;;;4.90;99.90;;;;;;5132365;27;20055;-77
2022/12/05 10:58:16;;;;;;;14.77;7.78;;;5.00;99.90;;;;;;5150375;27;20041;-76
2022/12/05 11:00:46;;;;;;;21.02;7.22;;;6.40;99.90;;;;;;5150258;27;20023;-76
2022/12/05 11:03:30;;;;;;;18.10;8.85;;;5.60;99.90;;;;;;5131759;27;20034;-75
2022/12/05 11:06:01;;;;;;;16.52;7.95;;;5.70;99.90;;;;;;5150102;27;20031;-77
2022/12/05 11:08:30;;;;;;;14.10;7.40;;;5.90;99.90;;;;;;5150286;27;20031;-76
2022/12/05 11:11:21;;;;;;;13.35;6.15;;;6.10;99.90;;;;;;5149958;27;20054;-77
2022/12/05 11:14:01;;;;;;;10.55;7.25;;;6.20;99.90;;;;;;5131327;27;20023;-76
2022/12/05 11:16:34;;;;;;;12.45;5.85;;;6.40;99.90;;;;;;5132108;27;20027;-76
2022/12/05 11:19:20;;;;;;;20.90;9.52;;;6.60;99.90;;;;;;5149317;27;20023;-77
2022/12/05 11:21:47;;;;;;;11.40;4.85;;;6.70;99.90;;;;;;5149430;27;20501;-77
2022/12/05 11:24:32;;;;;;;8.65;4.78;;;6.90;99.90;;;;;;5150094;27;20035;-76
2022/12/05 11:27:17;;;;;;;10.65;5.35;;;6.80;99.90;;;;;;5131558;27;20022;-77
2022/12/05 11:29:53;;;;;;;8.52;4.15;;;6.70;99.90;;;;;;5130958;27;20030;-77
2022/12/05 11:32:22;;;;;;;7.85;5.85;;;6.70;99.90;;;;;;5130831;27;20035;-76
2022/12/05 11:35:10;;;;;;;10.20;4.00;;;6.50;99.90;;;;;;5149774;27;20023;-77
2022/12/05 11:37:51;;;;;;;11.50;5.40;;;6.40;99.90;;;;;;5131386;27;20270;-76
2022/12/05 11:40:40;;;;;;;11.68;5.85;;;6.20;99.90;;;;;;5149117;27;20022;-77
2022/12/05 11:43:31;;;;;;;7.60;4.50;;;6.20;99.90;;;;;;5098718;27;20392;-76
2022/12/05 11:46:15;;;;;;;11.70;5.07;;;6.40;99.90;;;;;;5135365;27;20041;-76
2022/12/05 11:49:12;;;;;;;9.32;5.15;;;6.60;99.90;;;;;;5149265;27;20022;-76
2022/12/05 11:51:49;;;;;;;11.20;5.82;;;6.50;99.90;;;;;;5149711;27;20514;-77
2022/12/05 11:54:41;;;;;;;8.90;4.85;;;6.50;99.90;;;;;;5148998;27;20034;-76
2022/12/05 11:57:13;;;;;;;9.82;5.55;;;6.50;99.90;;;;;;5149466;27;20122;-77
2022/12/05 12:00:15;;;;;;;11.63;5.15;;;6.60;99.90;;;;;;5149170;27;20039;-76
2022/12/05 12:02:53;;;;;;;8.30;4.68;;;6.50;99.90;;;;;;5129901;27;20027;-77
2022/12/05 12:06:03;;;;;;;6.28;4.43;;;6.70;99.90;;;;;;5149120;27;20030;-76
2022/12/05 12:08:58;;;;;;;6.38;5.47;;;6.60;99.90;;;;;;5148831;27;20019;-76
2022/12/05 12:11:43;;;;;;;5.22;3.38;;;6.50;99.90;;;;;;5130295;27;20046;-76
2022/12/05 12:14:18;;;;;;;8.82;4.32;;;6.40;99.90;;;;;;5148825;27;20026;-75
2022/12/05 12:16:56;;;;;;;7.43;3.58;;;6.30;99.90;;;;;;5149254;27;20120;-76
2022/12/05 12:19:32;;;;;;;5.85;4.13;;;6.20;99.90;;;;;;5129737;27;20478;-75
2022/12/05 12:22:19;;;;;;;3.75;2.63;;;6.20;99.90;;;;;;5129793;27;20126;-75
2022/12/05 12:24:57;;;;;;;3.65;2.53;;;6.20;99.90;;;;;;5149434;27;20062;-78
2022/12/05 12:27:23;;;;;;;2.83;2.53;;;;;;;;;;5150458;27;20022;-75
2022/12/05 12:30:16;;;;;;;5.10;2.78;;;6.30;99.90;;;;;;5130842;27;20496;-76
2022/12/05 12:33:15;;;;;;;2.42;2.00;;;6.40;99.90;;;;;;5149374;27;20054;-74
2022/12/05 12:36:02;;;;;;;5.70;2.77;;;6.40;99.90;;;;;;5149207;27;20115;-75
2022/12/05 12:38:42;;;;;;;4.68;1.90;;;6.60;99.90;;;;;;5149777;27;20769;-74
2022/12/05 12:41:37;;;;;;;2.20;1.90;;;6.50;99.90;;;;;;5148263;27;20033;-75
2022/12/05 12:44:09;;;;;;;2.63;1.88;;;6.50;99.90;;;;;;5148419;27;20019;-76
2022/12/05 12:46:52;;;;;;;3.65;2.20;;;6.50;99.90;;;;;;5148581;27;20199;-76
2022/12/05 12:49:30;;;;;;;3.05;2.03;;;6.60;99.90;;;;;;5148623;27;20063;-76
2022/12/05 12:52:11;;;;;;;2.78;1.35;;;6.70;99.90;;;;;;5148857;27;20039;-75
2022/12/05 12:55:14;;;;;;;4.93;2.10;;;7.00;99.90;;;;;;5129850;27;20101;-77
2022/12/05 12:58:26;;;;;;;2.38;2.17;;;7.30;99.90;;;;;;5128056;28;20047;-76
2022/12/05 13:01:39;;;;;;;2.33;1.45;;;7.80;99.90;;;;;;5126859;28;20042;-76
2022/12/05 13:04:21;;;;;;;1.50;1.40;;;8.30;99.90;;;;;;5110600;28;20088;-75
2022/12/05 13:06:50;;;;;;;5.68;1.70;;;8.50;99.90;;;;;;5110482;28;20076;-76
2022/12/05 13:09:37;;;;;;;1.75;1.30;;;8.70;99.90;;;;;;5109827;28;20075;-76
2022/12/05 13:12:11;;;;;;;1.45;1.30;;;8.90;99.90;;;;;;5110260;28;20047;-76
2022/12/05 13:14:43;;;;;;;2.33;1.55;;;9.00;97.70;;;;;;5110737;27;20080;-75
2022/12/05 13:17:14;;;;;;;2.63;1.48;;;9.00;96.60;;;;;;5132687;27;20471;-76
2022/12/05 13:19:42;;;;;;;1.10;1.00;;;9.20;96.50;;;;;;5132198;27;20035;-76
2022/12/05 13:22:08;;;;;;;2.70;1.88;;;9.00;95.20;;;;;;5132447;27;20077;-75
2022/12/05 13:24:34;;;;;;;2.65;1.70;;;8.90;94.90;;;;;;5132329;27;20023;-78